Time;durP1;ratioP1;P1;durP2;ratioP2;P2;SDS_P1;SDS_P2;PMS_P1;PMS_P2;Temp;Humidity;BMP_temperature;BMP_pressure;BME280_temperature;BME280_humidity;BME280_pressure;Samples;Min_cycle;Max_cycle;Signal;HPM_P1;HPM_P2
2021/06/08 00:01:27;;;;;;;16.15;7.07;;;17.00;99.90;;;;;;4863228;29;20056;-88
2021/06/08 00:03:56;;;;;;;15.60;8.02;;;16.90;99.90;;;;;;4855207;29;20068;-87
2021/06/08 00:06:24;;;;;;;14.32;7.22;;;16.80;99.90;;;;;;4865767;29;20064;-88
2021/06/08 00:08:53;;;;;;;14.38;7.85;;;16.80;99.90;;;;;;4879134;29;20049;-88
2021/06/08 00:11:32;;;;;;;15.48;6.93;;;16.70;99.90;;;;;;4875944;29;20055;-88
2021/06/08 00:14:00;;;;;;;11.63;6.00;;;16.70;99.90;;;;;;4881659;29;20053;-88
2021/06/08 00:16:28;;;;;;;14.65;7.07;;;16.50;99.90;;;;;;4873901;29;20037;-87
2021/06/08 00:18:56;;;;;;;13.57;6.95;;;16.50;99.90;;;;;;4896613;29;20064;-87
2021/06/08 00:21:25;;;;;;;21.33;8.27;;;16.40;99.90;;;;;;4859919;29;20059;-88
2021/06/08 00:23:55;;;;;;;12.80;7.28;;;16.40;99.90;;;;;;4849930;29;20658;-87
2021/06/08 00:26:22;;;;;;;18.23;8.15;;;16.30;99.90;;;;;;4880006;29;20060;-88
2021/06/08 00:28:51;;;;;;;14.75;7.05;;;16.20;99.90;;;;;;4896193;29;20091;-88
2021/06/08 00:31:19;;;;;;;21.55;9.45;;;16.20;99.90;;;;;;4865962;29;20061;-87
2021/06/08 00:33:51;;;;;;;19.75;9.45;;;16.20;99.90;;;;;;4883685;29;20056;-87
2021/06/08 00:36:20;;;;;;;20.23;9.88;;;16.20;99.90;;;;;;4857098;29;20520;-88
2021/06/08 00:38:53;;;;;;;17.92;9.10;;;16.20;99.90;;;;;;4885195;29;20103;-87
2021/06/08 00:41:39;;;;;;;20.25;9.60;;;16.20;99.90;;;;;;4854275;29;20063;-88
2021/06/08 00:44:13;;;;;;;25.08;9.57;;;16.20;99.90;;;;;;4850662;29;20060;-88
2021/06/08 00:46:43;;;;;;;23.83;10.73;;;16.20;99.90;;;;;;4894869;29;20064;-87
2021/06/08 00:49:12;;;;;;;22.77;9.82;;;16.10;99.90;;;;;;4851381;29;20053;-88
2021/06/08 00:51:42;;;;;;;21.65;8.57;;;16.10;99.90;;;;;;4864586;29;20052;-87
2021/06/08 00:54:10;;;;;;;20.02;9.30;;;16.10;99.90;;;;;;4868839;29;20060;-88
2021/06/08 00:56:41;;;;;;;21.50;9.52;;;16.10;99.90;;;;;;4867572;29;20060;-87
2021/06/08 00:59:13;;;;;;;20.23;10.95;;;16.00;99.90;;;;;;4879527;29;20056;-87
2021/06/08 01:01:42;;;;;;;23.80;10.63;;;16.00;99.90;;;;;;4864711;29;20068;-86
2021/06/08 01:04:11;;;;;;;19.55;10.25;;;16.20;99.90;;;;;;4870416;29;20056;-88
2021/06/08 01:06:39;;;;;;;20.38;10.05;;;16.00;99.90;;;;;;4881227;29;20064;-87
2021/06/08 01:09:09;;;;;;;19.40;10.20;;;15.90;99.90;;;;;;4879961;29;20060;-87
2021/06/08 01:11:37;;;;;;;17.23;10.10;;;16.00;99.90;;;;;;4871698;29;20064;-88
2021/06/08 01:14:06;;;;;;;17.83;9.50;;;15.90;99.90;;;;;;4877888;29;20395;-88
2021/06/08 01:16:35;;;;;;;20.63;9.13;;;16.00;99.90;;;;;;4859277;29;20049;-88
2021/06/08 01:19:05;;;;;;;20.48;10.00;;;15.90;99.90;;;;;;4881296;29;20060;-87
2021/06/08 01:21:34;;;;;;;19.95;10.20;;;15.90;99.90;;;;;;4865886;29;20049;-88
2021/06/08 01:24:03;;;;;;;19.95;9.25;;;15.80;99.90;;;;;;4862681;29;20056;-87
2021/06/08 01:26:32;;;;;;;21.23;11.45;;;15.80;99.90;;;;;;4875849;29;20508;-87
2021/06/08 01:29:03;;;;;;;20.13;9.82;;;15.80;99.90;;;;;;4881229;29;20056;-87
2021/06/08 01:31:35;;;;;;;22.88;9.63;;;15.70;99.90;;;;;;4884272;29;20067;-87
2021/06/08 01:34:05;;;;;;;22.25;10.75;;;15.70;99.90;;;;;;4867179;29;20056;-87
2021/06/08 01:36:40;;;;;;;22.17;10.43;;;15.70;99.90;;;;;;4906190;29;20056;-87
2021/06/08 01:39:08;;;;;;;22.27;10.82;;;15.70;99.90;;;;;;4887951;29;20067;-89
2021/06/08 01:41:38;;;;;;;19.10;10.57;;;15.60;99.90;;;;;;4893493;29;20045;-87
2021/06/08 01:44:12;;;;;;;21.35;9.95;;;15.60;99.90;;;;;;4887802;29;20056;-86
2021/06/08 01:46:41;;;;;;;27.13;11.50;;;15.60;99.90;;;;;;4866563;29;20287;-87
2021/06/08 01:49:09;;;;;;;24.13;10.05;;;15.60;99.90;;;;;;4881987;29;20515;-87
2021/06/08 01:51:40;;;;;;;20.48;10.73;;;15.60;99.90;;;;;;4881114;29;20056;-87
2021/06/08 01:54:26;;;;;;;24.60;11.52;;;15.60;99.90;;;;;;4863437;29;20405;-87
2021/06/08 01:57:03;;;;;;;20.83;10.60;;;15.50;99.90;;;;;;4893207;29;20530;-87
2021/06/08 01:59:43;;;;;;;25.02;11.38;;;15.50;99.90;;;;;;4877884;29;20060;-86
2021/06/08 02:02:26;;;;;;;20.75;10.00;;;15.50;99.90;;;;;;4848730;29;20057;-87
2021/06/08 02:05:06;;;;;;;19.55;10.45;;;15.50;99.90;;;;;;4873360;29;20489;-87
2021/06/08 02:07:41;;;;;;;21.40;10.25;;;15.40;99.90;;;;;;4886529;29;20049;-87
2021/06/08 02:10:49;;;;;;;18.23;9.70;;;15.40;99.90;;;;;;4881415;29;20068;-87
2021/06/08 02:13:54;;;;;;;22.75;10.57;;;15.40;99.90;;;;;;4881743;29;20765;-87
2021/06/08 02:16:28;;;;;;;18.85;9.77;;;15.30;99.90;;;;;;4863216;29;20060;-87
2021/06/08 02:18:56;;;;;;;21.13;11.75;;;15.40;99.90;;;;;;4880760;29;20458;-87
2021/06/08 02:21:30;;;;;;;20.95;10.38;;;15.70;99.90;;;;;;4903309;29;20156;-87
2021/06/08 02:23:59;;;;;;;19.08;10.52;;;15.30;99.90;;;;;;4850777;29;20040;-88
2021/06/08 02:26:28;;;;;;;21.35;9.48;;;15.30;99.90;;;;;;4871829;29;20414;-87
2021/06/08 02:28:56;;;;;;;19.40;9.43;;;15.30;99.90;;;;;;4849808;29;20053;-88
2021/06/08 02:31:26;;;;;;;20.58;10.60;;;15.20;99.90;;;;;;4871453;29;20401;-87
2021/06/08 02:33:55;;;;;;;21.30;10.32;;;15.20;99.90;;;;;;4887817;29;20055;-88
2021/06/08 02:36:24;;;;;;;21.20;10.45;;;15.20;99.90;;;;;;4880875;29;20079;-88
2021/06/08 02:38:54;;;;;;;20.08;10.23;;;15.20;99.90;;;;;;4865432;29;20061;-86
2021/06/08 02:41:23;;;;;;;18.95;9.75;;;15.20;99.90;;;;;;4865323;29;20057;-87
2021/06/08 02:43:53;;;;;;;20.05;11.60;;;15.20;99.90;;;;;;4877876;29;20065;-87
2021/06/08 02:46:25;;;;;;;19.95;9.70;;;15.10;99.90;;;;;;4877237;29;20068;-88
2021/06/08 02:49:00;;;;;;;22.25;10.20;;;15.10;99.90;;;;;;4858389;29;20048;-87
2021/06/08 02:51:29;;;;;;;19.88;9.95;;;15.10;99.90;;;;;;4898930;29;20057;-87
2021/06/08 02:53:57;;;;;;;30.30;11.45;;;15.00;99.90;;;;;;4881898;29;20067;-87
2021/06/08 02:56:26;;;;;;;21.08;9.60;;;15.00;99.90;;;;;;4882779;29;20063;-87
2021/06/08 02:58:55;;;;;;;23.92;9.75;;;15.00;99.90;;;;;;4869853;29;20555;-87
2021/06/08 03:01:23;;;;;;;19.92;10.68;;;14.90;99.90;;;;;;4865832;29;20524;-87
2021/06/08 03:03:54;;;;;;;21.38;10.95;;;14.90;99.90;;;;;;4869954;29;20060;-87
2021/06/08 03:06:52;;;;;;;23.27;12.00;;;14.80;99.90;;;;;;4887570;29;20057;-86
2021/06/08 03:09:36;;;;;;;22.95;11.48;;;14.80;99.90;;;;;;4896131;29;20453;-87
2021/06/08 03:12:12;;;;;;;25.35;11.98;;;14.80;99.90;;;;;;4897177;29;20405;-87
2021/06/08 03:14:44;;;;;;;21.40;10.85;;;14.70;99.90;;;;;;4888147;29;20548;-87
2021/06/08 03:17:15;;;;;;;26.10;11.43;;;14.60;99.90;;;;;;4862591;29;20056;-87
2021/06/08 03:19:47;;;;;;;19.40;10.27;;;14.70;99.90;;;;;;4879341;29;20115;-87
2021/06/08 03:22:19;;;;;;;18.70;9.98;;;15.00;99.90;;;;;;4876627;29;20045;-88
2021/06/08 03:24:51;;;;;;;21.95;10.60;;;14.60;99.90;;;;;;4867568;29;20418;-87
2021/06/08 03:27:20;;;;;;;19.80;8.88;;;14.60;99.90;;;;;;4879833;29;20060;-87
2021/06/08 03:29:49;;;;;;;23.48;10.43;;;14.60;99.90;;;;;;4861817;29;20056;-88
2021/06/08 03:32:18;;;;;;;21.20;10.75;;;14.10;99.90;;;;;;4877862;29;20057;-87
2021/06/08 03:34:47;;;;;;;21.98;9.57;;;14.60;99.90;;;;;;4870499;29;20052;-83
2021/06/08 03:37:19;;;;;;;18.65;10.18;;;14.60;99.90;;;;;;4914589;29;20057;-85
2021/06/08 03:40:13;;;;;;;18.92;9.57;;;14.60;99.90;;;;;;4886462;29;20065;-85
2021/06/08 03:42:42;;;;;;;20.90;10.00;;;14.60;99.90;;;;;;4891151;29;20063;-86
2021/06/08 03:45:13;;;;;;;22.60;10.57;;;14.60;99.90;;;;;;4885328;29;20071;-86
2021/06/08 03:47:42;;;;;;;21.08;11.05;;;14.50;99.90;;;;;;4870945;29;20071;-87
2021/06/08 03:50:14;;;;;;;19.77;9.75;;;14.50;99.90;;;;;;4883176;29;20354;-87
2021/06/08 03:52:49;;;;;;;16.70;8.98;;;14.40;99.90;;;;;;4863926;29;20060;-87
2021/06/08 03:55:20;;;;;;;18.85;9.85;;;14.40;99.90;;;;;;4895959;29;20633;-86
2021/06/08 03:57:53;;;;;;;18.85;8.68;;;14.40;99.90;;;;;;4864445;29;20514;-87
2021/06/08 04:00:24;;;;;;;19.55;9.40;;;14.30;99.90;;;;;;4878951;29;20063;-87
2021/06/08 04:02:53;;;;;;;20.50;9.23;;;14.30;99.90;;;;;;4895928;29;20060;-87
2021/06/08 04:05:21;;;;;;;16.02;9.18;;;14.30;99.90;;;;;;4874847;29;20056;-87
2021/06/08 04:07:50;;;;;;;17.67;9.88;;;14.30;99.90;;;;;;4864078;29;20049;-86
2021/06/08 04:10:21;;;;;;;17.23;9.85;;;14.20;99.90;;;;;;4879839;29;20044;-87
2021/06/08 04:12:50;;;;;;;25.45;10.82;;;14.00;99.90;;;;;;4863992;29;20048;-88
2021/06/08 04:15:19;;;;;;;19.70;10.13;;;14.10;99.90;;;;;;4863547;29;20512;-87
2021/06/08 04:17:49;;;;;;;17.65;9.52;;;14.10;99.90;;;;;;4879204;29;20062;-86
2021/06/08 04:20:19;;;;;;;20.27;10.70;;;14.10;99.90;;;;;;4890237;29;20056;-87
2021/06/08 04:22:47;;;;;;;22.40;10.02;;;14.10;99.90;;;;;;4863338;29;20048;-87
2021/06/08 04:25:17;;;;;;;20.58;9.93;;;14.10;99.90;;;;;;4879930;29;20067;-87
2021/06/08 04:27:45;;;;;;;21.08;10.45;;;14.20;99.90;;;;;;4901950;29;20048;-87
2021/06/08 04:30:15;;;;;;;22.88;11.63;;;14.10;99.90;;;;;;4881559;29;20060;-87
2021/06/08 04:32:44;;;;;;;20.58;9.90;;;14.10;99.90;;;;;;4853091;29;20051;-87
2021/06/08 04:35:14;;;;;;;23.88;11.95;;;14.10;99.90;;;;;;4880963;29;20357;-88
2021/06/08 04:37:42;;;;;;;18.63;9.70;;;14.10;99.90;;;;;;4865446;29;20052;-86
2021/06/08 04:40:12;;;;;;;16.33;9.52;;;14.10;99.90;;;;;;4865138;29;20053;-87
2021/06/08 04:42:46;;;;;;;21.35;9.10;;;14.10;99.90;;;;;;4880632;29;20055;-86
2021/06/08 04:45:15;;;;;;;21.52;9.82;;;14.10;99.90;;;;;;4868099;29;20052;-87
2021/06/08 04:47:47;;;;;;;23.65;8.40;;;14.20;99.90;;;;;;4879634;29;20548;-87
2021/06/08 04:50:16;;;;;;;21.13;9.27;;;14.20;99.90;;;;;;4882673;29;20055;-87
2021/06/08 04:52:44;;;;;;;17.92;8.95;;;14.20;99.90;;;;;;4892742;29;20052;-88
2021/06/08 04:55:12;;;;;;;19.00;10.00;;;14.30;99.90;;;;;;4861186;29;20052;-87
2021/06/08 04:57:40;;;;;;;21.88;10.38;;;14.30;99.90;;;;;;4862370;29;20060;-87
2021/06/08 05:00:14;;;;;;;18.45;9.48;;;14.40;99.90;;;;;;4875720;29;20060;-88
2021/06/08 05:03:03;;;;;;;21.27;9.60;;;14.50;99.90;;;;;;4861717;29;20068;-88
2021/06/08 05:05:35;;;;;;;29.42;10.07;;;14.50;99.90;;;;;;4894366;29;20056;-88
2021/06/08 05:08:08;;;;;;;20.63;10.50;;;14.60;99.90;;;;;;4845936;29;20071;-88
2021/06/08 05:10:46;;;;;;;19.10;8.98;;;14.60;99.90;;;;;;4861684;29;20753;-87
2021/06/08 05:13:14;;;;;;;15.73;8.57;;;14.70;99.90;;;;;;4876412;29;20052;-87
2021/06/08 05:15:44;;;;;;;18.45;9.10;;;14.70;99.90;;;;;;4892565;29;20056;-89
2021/06/08 05:18:15;;;;;;;16.85;9.45;;;14.80;99.90;;;;;;4875593;29;20053;-87
2021/06/08 05:20:44;;;;;;;15.07;8.10;;;14.80;99.90;;;;;;4877015;29;20048;-87
2021/06/08 05:23:15;;;;;;;18.00;8.65;;;14.90;99.90;;;;;;4861980;29;20142;-87
2021/06/08 05:25:44;;;;;;;19.00;9.55;;;14.90;99.90;;;;;;4861590;29;20060;-88
2021/06/08 05:28:14;;;;;;;24.35;9.70;;;15.00;99.90;;;;;;4846298;29;20074;-88
2021/06/08 05:30:45;;;;;;;16.08;8.68;;;15.00;99.90;;;;;;4879564;29;20052;-88
2021/06/08 05:33:21;;;;;;;21.47;7.87;;;15.10;99.90;;;;;;4859510;29;20064;-88
2021/06/08 05:35:56;;;;;;;19.98;8.98;;;15.10;99.90;;;;;;4875683;29;20056;-87
2021/06/08 05:38:33;;;;;;;12.60;7.90;;;15.20;99.90;;;;;;4870830;29;20061;-88
2021/06/08 05:41:08;;;;;;;18.13;9.00;;;15.20;99.90;;;;;;4875920;29;20048;-87
2021/06/08 05:43:37;;;;;;;13.88;7.35;;;15.30;99.90;;;;;;4891942;29;20512;-87
2021/06/08 05:46:07;;;;;;;16.73;8.30;;;15.30;99.90;;;;;;4847357;29;20056;-87
2021/06/08 05:48:36;;;;;;;19.30;9.07;;;15.40;99.90;;;;;;4863808;29;20041;-88
2021/06/08 05:51:07;;;;;;;17.40;8.02;;;15.50;99.90;;;;;;4882539;29;20064;-89
2021/06/08 05:53:44;;;;;;;19.23;9.38;;;15.70;99.90;;;;;;4859853;29;20045;-88
2021/06/08 05:56:13;;;;;;;27.15;8.38;;;15.50;99.90;;;;;;4873627;29;20068;-87
2021/06/08 05:58:41;;;;;;;20.77;9.45;;;15.60;99.90;;;;;;4872613;29;20060;-88
2021/06/08 06:01:11;;;;;;;18.17;8.15;;;15.60;99.90;;;;;;4879921;29;20126;-87
2021/06/08 06:03:40;;;;;;;19.08;8.55;;;15.60;99.90;;;;;;4861228;29;20055;-87
2021/06/08 06:06:11;;;;;;;24.15;11.02;;;15.70;99.90;;;;;;4888872;29;20044;-87
2021/06/08 06:08:39;;;;;;;15.82;8.25;;;15.70;99.90;;;;;;4891744;29;20405;-86
2021/06/08 06:11:08;;;;;;;16.13;8.23;;;15.90;99.90;;;;;;4852433;29;20052;-86
2021/06/08 06:13:47;;;;;;;15.30;8.32;;;15.90;99.90;;;;;;4874539;29;20410;-87
2021/06/08 06:16:17;;;;;;;16.85;8.60;;;15.90;99.90;;;;;;4890877;29;20076;-88
2021/06/08 06:18:48;;;;;;;15.13;7.40;;;16.00;99.90;;;;;;4844910;29;20045;-87
2021/06/08 06:21:17;;;;;;;15.25;7.88;;;16.00;99.90;;;;;;4879394;29;20052;-87
2021/06/08 06:23:46;;;;;;;18.55;8.35;;;16.10;99.90;;;;;;4876593;29;20519;-88
2021/06/08 06:26:14;;;;;;;15.70;7.60;;;16.10;99.90;;;;;;4874606;29;20076;-87
2021/06/08 06:28:42;;;;;;;15.98;8.30;;;15.80;99.90;;;;;;4876098;29;20056;-86
2021/06/08 06:31:10;;;;;;;22.95;8.38;;;16.30;99.90;;;;;;4896997;29;20386;-85
2021/06/08 06:33:43;;;;;;;14.13;7.65;;;16.30;99.90;;;;;;4877551;29;20060;-86
2021/06/08 06:36:12;;;;;;;15.32;7.55;;;16.70;99.90;;;;;;4866879;29;20064;-85
2021/06/08 06:38:44;;;;;;;16.02;7.78;;;16.50;99.90;;;;;;4876071;29;20052;-86
2021/06/08 06:41:13;;;;;;;15.43;7.63;;;16.50;99.90;;;;;;4891535;29;20057;-84
2021/06/08 06:43:49;;;;;;;20.02;7.78;;;16.50;99.90;;;;;;4858574;29;20052;-85
2021/06/08 06:46:21;;;;;;;18.10;6.97;;;16.60;99.90;;;;;;4889733;29;20056;-85
2021/06/08 06:48:54;;;;;;;18.40;8.77;;;16.60;99.90;;;;;;4893077;29;20060;-86
2021/06/08 06:51:23;;;;;;;19.05;9.07;;;16.80;99.90;;;;;;4888612;29;20044;-85
2021/06/08 06:53:54;;;;;;;15.25;7.03;;;16.70;99.90;;;;;;4862758;29;20087;-84
2021/06/08 06:56:23;;;;;;;18.10;7.22;;;16.80;99.90;;;;;;4890379;29;20061;-86
2021/06/08 06:58:51;;;;;;;17.95;7.63;;;16.90;99.90;;;;;;4890717;29;20496;-84
2021/06/08 07:01:24;;;;;;;14.15;7.55;;;16.90;99.90;;;;;;4896496;29;20057;-84
2021/06/08 07:03:54;;;;;;;20.45;8.23;;;17.00;99.90;;;;;;4898612;29;20129;-84
2021/06/08 07:06:23;;;;;;;15.40;6.68;;;17.10;99.90;;;;;;4876807;29;20045;-84
2021/06/08 07:08:56;;;;;;;10.02;5.95;;;17.20;99.90;;;;;;4894230;29;20067;-84
2021/06/08 07:11:25;;;;;;;14.95;7.65;;;17.30;99.90;;;;;;4894723;29;20485;-83
2021/06/08 07:13:53;;;;;;;14.05;7.15;;;17.30;99.90;;;;;;4867554;29;20450;-85
2021/06/08 07:16:25;;;;;;;16.70;7.80;;;17.50;99.90;;;;;;4886914;29;20068;-83
2021/06/08 07:18:54;;;;;;;11.57;6.47;;;17.50;99.90;;;;;;4893365;29;20060;-84
2021/06/08 07:21:24;;;;;;;11.30;6.53;;;17.60;99.90;;;;;;4887980;29;20054;-83
2021/06/08 07:23:55;;;;;;;15.48;6.28;;;17.60;99.90;;;;;;4892069;29;20061;-83
2021/06/08 07:26:26;;;;;;;15.48;8.63;;;17.70;99.90;;;;;;4875767;29;20067;-85
2021/06/08 07:28:55;;;;;;;17.20;7.38;;;17.70;99.90;;;;;;4876640;29;20056;-84
2021/06/08 07:31:33;;;;;;;11.57;6.28;;;17.80;99.90;;;;;;4893091;29;20059;-83
2021/06/08 07:34:04;;;;;;;15.63;6.45;;;17.90;99.90;;;;;;4889987;29;20071;-83
2021/06/08 07:36:45;;;;;;;13.20;6.97;;;18.00;99.90;;;;;;4896560;29;20076;-83
2021/06/08 07:39:13;;;;;;;14.13;7.15;;;18.10;99.90;;;;;;4896410;29;20048;-84
2021/06/08 07:42:06;;;;;;;8.90;5.85;;;18.20;99.90;;;;;;4894128;29;20048;-83
2021/06/08 07:44:58;;;;;;;17.88;5.65;;;18.20;99.90;;;;;;4871189;29;20398;-84
2021/06/08 07:47:31;;;;;;;10.57;5.45;;;18.30;99.90;;;;;;4893090;29;20057;-83
2021/06/08 07:50:01;;;;;;;16.45;7.47;;;18.40;99.90;;;;;;4897587;29;20063;-84
2021/06/08 07:52:31;;;;;;;17.15;6.82;;;18.50;99.90;;;;;;4891585;29;20064;-84
2021/06/08 07:54:59;;;;;;;11.48;6.07;;;18.50;99.90;;;;;;4881797;29;20056;-84
2021/06/08 07:57:27;;;;;;;16.08;7.93;;;18.50;99.90;;;;;;4902136;29;20071;-83
2021/06/08 08:00:10;;;;;;;13.65;6.32;;;18.70;99.90;;;;;;4890901;29;20071;-84
2021/06/08 08:02:46;;;;;;;18.15;7.45;;;18.80;99.90;;;;;;4876554;29;20067;-84
2021/06/08 08:05:17;;;;;;;8.30;3.92;;;18.90;99.90;;;;;;4892811;29;20049;-84
2021/06/08 08:07:46;;;;;;;12.50;5.57;;;19.00;99.90;;;;;;4891579;29;20063;-85
2021/06/08 08:10:22;;;;;;;11.90;4.93;;;19.00;99.90;;;;;;4892278;29;20315;-84
2021/06/08 08:12:50;;;;;;;9.93;4.78;;;19.10;99.90;;;;;;4876926;29;20057;-85
2021/06/08 08:15:19;;;;;;;13.73;4.65;;;19.10;99.90;;;;;;4891934;29;20056;-84
2021/06/08 08:17:49;;;;;;;9.82;5.05;;;19.20;99.90;;;;;;4891839;29;20064;-84
2021/06/08 08:20:41;;;;;;;9.85;5.47;;;19.30;99.90;;;;;;4873344;29;20753;-84
2021/06/08 08:23:09;;;;;;;7.25;4.80;;;19.30;99.90;;;;;;4891153;29;20509;-87
2021/06/08 08:25:37;;;;;;;10.95;4.63;;;19.40;99.90;;;;;;4892671;29;20111;-87
2021/06/08 08:28:06;;;;;;;13.20;4.60;;;19.50;99.90;;;;;;4862764;29;20048;-86
2021/06/08 08:30:34;;;;;;;8.23;4.38;;;19.50;99.90;;;;;;4891371;29;20056;-87
2021/06/08 08:33:03;;;;;;;8.52;4.03;;;19.60;99.90;;;;;;4883476;29;20057;-86
2021/06/08 08:35:33;;;;;;;10.10;3.88;;;19.70;99.90;;;;;;4873592;29;20064;-86
2021/06/08 08:38:01;;;;;;;10.50;4.90;;;19.90;99.90;;;;;;4891241;29;20055;-85
2021/06/08 08:40:28;;;;;;;7.07;3.88;;;19.90;99.90;;;;;;4890903;29;20060;-85
2021/06/08 08:43:01;;;;;;;9.00;4.05;;;20.00;99.90;;;;;;4896570;29;20516;-85
2021/06/08 08:45:33;;;;;;;8.38;3.20;;;20.10;99.90;;;;;;4888224;29;20056;-85
2021/06/08 08:48:05;;;;;;;8.10;3.65;;;20.10;99.90;;;;;;4888494;29;20056;-85
2021/06/08 08:50:33;;;;;;;7.53;3.78;;;20.20;99.90;;;;;;4874502;29;20747;-85
2021/06/08 08:53:04;;;;;;;5.50;3.08;;;20.30;99.90;;;;;;4888370;29;20053;-84
2021/06/08 08:55:35;;;;;;;8.05;3.90;;;20.40;99.90;;;;;;4875797;29;20052;-85
2021/06/08 08:58:06;;;;;;;7.45;3.22;;;20.60;99.90;;;;;;4871732;29;20049;-85
2021/06/08 09:00:36;;;;;;;13.57;4.85;;;20.70;99.90;;;;;;4888226;29;20057;-85
2021/06/08 09:03:06;;;;;;;8.10;3.38;;;20.70;99.90;;;;;;4875050;29;20052;-85
2021/06/08 09:05:38;;;;;;;6.20;3.13;;;21.00;99.90;;;;;;4860389;29;20068;-85
2021/06/08 09:08:07;;;;;;;8.23;3.28;;;20.90;99.90;;;;;;4866989;29;20057;-84
2021/06/08 09:10:38;;;;;;;6.82;2.78;;;20.90;99.90;;;;;;4876515;29;20053;-84
2021/06/08 09:13:07;;;;;;;5.07;2.38;;;21.00;99.90;;;;;;4872100;29;20052;-86
2021/06/08 09:15:36;;;;;;;4.40;2.15;;;21.10;99.90;;;;;;4891058;29;20053;-85
2021/06/08 09:18:04;;;;;;;5.00;2.92;;;21.20;99.90;;;;;;4872610;29;20061;-84
2021/06/08 09:20:33;;;;;;;7.30;3.10;;;21.30;99.90;;;;;;4873787;29;20041;-83
2021/06/08 09:23:06;;;;;;;4.85;2.00;;;21.40;99.90;;;;;;4891654;29;20063;-85
2021/06/08 09:25:37;;;;;;;4.18;2.05;;;21.50;99.90;;;;;;4890861;29;20053;-84
2021/06/08 09:28:23;;;;;;;10.98;2.70;;;21.60;99.90;;;;;;4889168;29;20080;-83
2021/06/08 09:30:57;;;;;;;11.25;2.78;;;21.60;99.90;;;;;;4890450;29;20426;-83
2021/06/08 09:33:28;;;;;;;12.15;3.13;;;21.70;99.90;;;;;;4874323;29;20048;-84
2021/06/08 09:36:01;;;;;;;6.85;2.40;;;21.70;99.90;;;;;;4857149;29;20430;-84
2021/06/08 09:38:41;;;;;;;6.85;3.38;;;21.70;99.90;;;;;;4837268;29;20086;-85
2021/06/08 09:41:13;;;;;;;5.90;2.15;;;21.70;99.90;;;;;;4867230;29;20057;-82
2021/06/08 09:43:56;;;;;;;4.45;2.08;;;21.80;99.90;;;;;;4872006;29;20083;-82
2021/06/08 09:46:32;;;;;;;3.38;1.50;;;21.90;99.90;;;;;;4851658;29;20045;-82
2021/06/08 09:49:02;;;;;;;2.42;1.58;;;22.00;99.90;;;;;;4872163;29;20498;-82
2021/06/08 09:52:11;;;;;;;4.13;2.28;;;22.10;99.90;;;;;;4873783;29;20501;-82
2021/06/08 09:54:44;;;;;;;3.10;1.33;;;22.30;99.60;;;;;;4873954;29;20061;-82
2021/06/08 09:57:13;;;;;;;5.93;2.15;;;22.30;99.30;;;;;;4871783;29;20052;-82
2021/06/08 09:59:40;;;;;;;6.18;1.80;;;22.30;98.70;;;;;;4860153;29;20370;-84
2021/06/08 10:02:23;;;;;;;4.85;2.00;;;22.40;98.90;;;;;;4871800;29;20496;-84
2021/06/08 10:05:13;;;;;;;2.42;1.35;;;22.40;97.80;;;;;;4837418;29;20063;-84
2021/06/08 10:07:41;;;;;;;4.10;1.33;;;22.40;97.70;;;;;;4858959;29;20057;-83
2021/06/08 10:10:22;;;;;;;4.30;2.08;;;22.40;97.70;;;;;;4852384;29;20809;-83
2021/06/08 10:12:55;;;;;;;4.20;1.55;;;22.50;97.50;;;;;;4871379;29;20053;-83
2021/06/08 10:15:25;;;;;;;5.65;1.30;;;22.40;97.20;;;;;;4870735;29;20060;-83
2021/06/08 10:18:03;;;;;;;3.65;2.05;;;22.40;97.10;;;;;;4869817;29;20057;-83
2021/06/08 10:20:35;;;;;;;5.97;2.00;;;22.40;96.70;;;;;;4868548;29;20060;-84
2021/06/08 10:23:25;;;;;;;3.53;1.27;;;22.40;96.70;;;;;;4862174;29;20076;-82
2021/06/08 10:26:05;;;;;;;3.05;1.60;;;22.50;96.30;;;;;;4865065;29;20060;-83
2021/06/08 10:28:33;;;;;;;4.13;1.67;;;22.70;96.80;;;;;;4854333;29;20045;-83
2021/06/08 10:31:02;;;;;;;2.33;1.75;;;22.90;96.70;;;;;;4873915;29;20057;-81
2021/06/08 10:33:50;;;;;;;3.17;1.92;;;23.00;96.30;;;;;;4872602;29;20068;-81
2021/06/08 10:36:27;;;;;;;2.60;1.58;;;23.10;96.10;;;;;;4869830;29;20061;-82
2021/06/08 10:38:55;;;;;;;5.07;1.88;;;23.20;95.80;;;;;;4874721;29;20056;-81
2021/06/08 10:41:23;;;;;;;2.75;1.65;;;23.20;95.70;;;;;;4869776;29;20072;-80
2021/06/08 10:43:51;;;;;;;3.03;1.65;;;23.30;95.40;;;;;;4865322;29;20532;-83
2021/06/08 10:46:48;;;;;;;2.65;1.45;;;23.20;95.00;;;;;;4871773;29;20373;-83
2021/06/08 10:49:31;;;;;;;5.07;1.60;;;23.20;94.70;;;;;;4868087;29;20505;-82
2021/06/08 10:52:08;;;;;;;2.97;1.77;;;23.20;94.90;;;;;;4869970;29;20053;-81
2021/06/08 10:54:48;;;;;;;3.58;1.48;;;23.30;93.80;;;;;;4874649;29;20057;-83
2021/06/08 10:57:17;;;;;;;2.58;1.40;;;23.50;94.40;;;;;;4874205;29;20053;-82
2021/06/08 10:59:50;;;;;;;5.47;1.65;;;23.70;94.30;;;;;;4867689;29;20072;-83
2021/06/08 11:02:46;;;;;;;2.08;1.20;;;23.80;93.80;;;;;;4855693;29;20053;-81
2021/06/08 11:05:16;;;;;;;7.03;1.52;;;23.80;92.60;;;;;;4871324;29;20402;-81
2021/06/08 11:07:44;;;;;;;4.55;1.30;;;23.90;92.90;;;;;;4838201;29;20053;-81
2021/06/08 11:10:30;;;;;;;3.35;1.55;;;24.00;92.90;;;;;;4871861;29;20603;-81
2021/06/08 11:13:10;;;;;;;10.00;2.13;;;24.00;91.80;;;;;;4869578;29;20053;-83
2021/06/08 11:15:40;;;;;;;1.77;1.17;;;24.00;91.50;;;;;;4862287;29;20660;-82
2021/06/08 11:18:20;;;;;;;4.15;1.70;;;24.10;92.20;;;;;;4854353;29;20053;-81
2021/06/08 11:21:09;;;;;;;3.47;1.55;;;24.30;91.30;;;;;;4872214;29;20053;-81
2021/06/08 11:23:44;;;;;;;3.08;1.75;;;24.40;90.70;;;;;;4872729;29;20060;-83
2021/06/08 11:26:14;;;;;;;2.67;2.00;;;24.60;91.10;;;;;;4854635;29;20053;-82
2021/06/08 11:28:52;;;;;;;2.70;1.52;;;24.60;90.70;;;;;;4874057;29;20057;-82
2021/06/08 11:31:24;;;;;;;3.72;1.30;;;24.70;90.10;;;;;;4872116;29;20049;-82
2021/06/08 11:34:03;;;;;;;10.88;2.00;;;24.80;90.30;;;;;;4872262;29;20156;-83
2021/06/08 11:36:34;;;;;;;4.45;1.08;;;24.80;89.60;;;;;;4872284;29;20132;-82
2021/06/08 11:39:18;;;;;;;;;;;24.90;88.90;;;;;;4842279;29;20073;-81
2021/06/08 11:42:03;;;;;;;1.75;1.00;;;25.00;84.80;;;;;;4873194;29;19928;-82
2021/06/08 11:44:32;;;;;;;1.63;1.05;;;25.20;84.70;;;;;;4872270;29;20057;-82
2021/06/08 11:47:01;;;;;;;2.08;1.10;;;25.30;86.00;;;;;;4873293;29;20060;-82
2021/06/08 11:49:30;;;;;;;3.58;1.50;;;25.40;85.10;;;;;;4876109;29;20394;-81
2021/06/08 11:52:13;;;;;;;5.78;1.80;;;25.30;84.40;;;;;;4875925;29;20079;-83
2021/06/08 11:54:44;;;;;;;5.85;1.85;;;25.30;83.10;;;;;;4856760;29;20060;-81
2021/06/08 11:57:14;;;;;;;4.03;1.73;;;25.20;84.60;;;;;;4872622;29;20069;-82
2021/06/08 11:59:45;;;;;;;3.22;1.20;;;25.20;84.30;;;;;;4882247;29;20061;-81
2021/06/08 12:02:36;;;;;;;11.90;1.90;;;25.10;83.70;;;;;;4864883;29;20061;-82
2021/06/08 12:05:21;;;;;;;2.80;1.20;;;25.10;82.90;;;;;;4867445;29;20517;-82
2021/06/08 12:08:02;;;;;;;4.57;1.88;;;25.00;83.00;;;;;;4850203;29;20053;-80
2021/06/08 12:10:43;;;;;;;1.73;1.40;;;25.10;81.80;;;;;;4874924;29;20060;-80
2021/06/08 12:13:13;;;;;;;2.53;1.35;;;25.10;76.30;;;;;;4875167;29;20071;-79
2021/06/08 12:15:47;;;;;;;3.60;1.50;;;25.10;78.20;;;;;;4874380;29;20364;-81
2021/06/08 12:18:23;;;;;;;5.30;1.65;;;25.10;79.10;;;;;;4874122;29;20056;-80
2021/06/08 12:21:18;;;;;;;2.88;1.55;;;25.20;80.20;;;;;;4846454;29;20048;-79
2021/06/08 12:23:47;;;;;;;3.40;1.10;;;25.30;80.60;;;;;;4872743;29;20060;-79
2021/06/08 12:26:21;;;;;;;3.22;1.75;;;25.40;81.30;;;;;;4857122;29;20053;-79
2021/06/08 12:29:08;;;;;;;4.93;1.70;;;25.70;79.40;;;;;;4873092;29;20422;-79
2021/06/08 12:31:37;;;;;;;2.03;1.35;;;25.80;79.30;;;;;;4873247;29;20056;-81
2021/06/08 12:34:14;;;;;;;2.47;1.63;;;26.00;79.20;;;;;;4876006;29;20063;-79
2021/06/08 12:36:46;;;;;;;3.70;1.15;;;26.10;76.60;;;;;;4873088;29;20063;-79
2021/06/08 12:39:17;;;;;;;5.05;1.70;;;26.40;77.20;;;;;;4888081;29;20053;-80
2021/06/08 12:41:46;;;;;;;2.90;1.23;;;26.50;76.60;;;;;;4856833;29;20053;-80
2021/06/08 12:44:30;;;;;;;6.45;1.52;;;26.50;77.60;;;;;;4857141;29;20064;-80
2021/06/08 12:47:01;;;;;;;1.45;1.13;;;26.30;76.80;;;;;;4871849;29;20178;-80
2021/06/08 12:49:35;;;;;;;4.82;1.20;;;26.00;77.10;;;;;;4877404;29;20071;-81
2021/06/08 12:52:05;;;;;;;5.22;1.23;;;25.90;76.40;;;;;;4878836;29;20060;-81
2021/06/08 12:54:39;;;;;;;2.67;1.43;;;25.80;76.50;;;;;;4871867;29;20056;-80
2021/06/08 12:57:33;;;;;;;3.83;1.40;;;25.80;76.00;;;;;;4871426;29;20072;-79
2021/06/08 13:00:08;;;;;;;4.85;1.08;;;26.00;75.70;;;;;;4856374;29;20052;-80
2021/06/08 13:02:37;;;;;;;1.55;1.08;;;26.20;74.70;;;;;;4867585;29;20060;-79
2021/06/08 13:05:08;;;;;;;1.95;0.85;;;26.20;73.80;;;;;;4871703;29;20057;-80
2021/06/08 13:07:38;;;;;;;;;;;26.40;74.30;;;;;;4881233;29;20056;-82